Time;durP1;ratioP1;P1;durP2;ratioP2;P2;SDS_P1;SDS_P2;PMS_P1;PMS_P2;Temp;Humidity;BMP_temperature;BMP_pressure;BME280_temperature;BME280_humidity;BME280_pressure;Samples;Min_cycle;Max_cycle;Signal;HPM_P1;HPM_P2
2022/12/16 00:02:11;;;;;;;0.30;0.30;;;;;;;-3.52;100.00;100944.06;5071272;28;20559;-71
2022/12/16 00:04:36;;;;;;;0.40;0.40;;;;;;;-3.31;100.00;100945.41;5074438;28;20356;-71
2022/12/16 00:07:02;;;;;;;0.38;0.38;;;;;;;-3.35;100.00;100946.41;5076793;28;20435;-71
2022/12/16 00:09:28;;;;;;;0.30;0.30;;;;;;;-3.28;100.00;100948.88;5076391;28;20112;-71
2022/12/16 00:11:53;;;;;;;0.30;0.30;;;;;;;-3.25;100.00;100952.34;5069936;28;20102;-71
2022/12/16 00:14:18;;;;;;;0.30;0.30;;;;;;;-3.22;100.00;100948.78;5064208;28;20042;-71
2022/12/16 00:16:44;;;;;;;0.30;0.30;;;;;;;-3.14;100.00;100956.50;5073293;28;20480;-71
2022/12/16 00:19:09;;;;;;;0.40;0.40;;;;;;;-3.12;100.00;100954.72;5083894;28;20040;-71
2022/12/16 00:21:35;;;;;;;0.30;0.30;;;;;;;-3.19;100.00;100946.09;5077648;28;20056;-71
2022/12/16 00:24:00;;;;;;;0.30;0.30;;;;;;;-3.12;100.00;100945.09;5070231;28;20043;-71
2022/12/16 00:26:26;;;;;;;0.30;0.30;;;;;;;-3.23;100.00;100934.78;5078235;28;20029;-71
2022/12/16 00:28:51;;;;;;;0.30;0.30;;;;;;;-3.06;100.00;100930.97;5083521;28;20039;-71
2022/12/16 00:31:16;;;;;;;0.30;0.30;;;;;;;-2.85;100.00;100945.44;5066066;28;20036;-71
2022/12/16 00:33:42;;;;;;;0.30;0.30;;;;;;;-2.75;100.00;100941.72;5073160;28;20181;-71
2022/12/16 00:36:07;;;;;;;0.30;0.30;;;;;;;-2.68;100.00;100942.47;5078339;28;20489;-71
2022/12/16 00:38:33;;;;;;;0.30;0.30;;;;;;;-2.63;100.00;100945.00;5082942;28;20089;-71
2022/12/16 00:40:59;;;;;;;0.30;0.30;;;;;;;-2.63;100.00;100948.47;5065721;28;20036;-71
2022/12/16 00:43:24;;;;;;;0.30;0.30;;;;;;;-2.76;100.00;100931.25;5079553;28;20036;-71
2022/12/16 00:45:49;;;;;;;0.30;0.30;;;;;;;-2.60;100.00;100951.03;5076014;28;20450;-71
2022/12/16 00:48:15;;;;;;;0.30;0.30;;;;;;;-2.59;100.00;100937.00;5065932;28;20071;-71
2022/12/16 00:50:44;;;;;;;0.30;0.30;;;;;;;-2.47;100.00;100943.75;5072549;28;20067;-72
2022/12/16 00:53:10;;;;;;;0.30;0.30;;;;;;;-2.40;100.00;100947.13;5077277;28;20040;-72
2022/12/16 00:55:35;;;;;;;0.30;0.30;;;;;;;-2.37;100.00;100954.94;5076339;28;20509;-72
2022/12/16 00:58:00;;;;;;;0.30;0.30;;;;;;;-2.35;100.00;100955.75;5066301;28;20051;-71
2022/12/16 01:00:26;;;;;;;0.28;0.28;;;;;;;-2.33;100.00;100951.34;5074115;28;20059;-72
2022/12/16 01:02:51;;;;;;;0.30;0.30;;;;;;;-2.31;100.00;100948.69;5068623;28;20408;-71
2022/12/16 01:05:20;;;;;;;0.30;0.30;;;;;;;-2.18;100.00;100962.44;5071230;28;20107;-71
2022/12/16 01:07:46;;;;;;;0.20;0.20;;;;;;;-2.26;100.00;100960.81;5080678;28;20561;-71
2022/12/16 01:10:12;;;;;;;0.20;0.20;;;;;;;-2.31;100.00;100959.22;5071890;28;20115;-71
2022/12/16 01:12:37;;;;;;;0.30;0.30;;;;;;;-2.38;100.00;100947.94;5069375;28;20082;-71
2022/12/16 01:15:04;;;;;;;0.30;0.30;;;;;;;-2.49;100.00;100940.28;5082299;28;20472;-72
2022/12/16 01:17:29;;;;;;;0.20;0.20;;;;;;;-2.45;100.00;100962.13;5074498;28;20482;-72
2022/12/16 01:19:55;;;;;;;0.30;0.30;;;;;;;-2.47;100.00;100974.44;5069487;28;20020;-72
2022/12/16 01:22:21;;;;;;;0.20;0.20;;;;;;;-2.43;100.00;100974.34;5064092;28;20038;-71
2022/12/16 01:24:46;;;;;;;0.30;0.30;;;;;;;-2.56;100.00;100963.22;5067944;28;20031;-72
2022/12/16 01:27:12;;;;;;;0.30;0.30;;;;;;;-2.67;100.00;100936.31;5068748;28;20032;-72
2022/12/16 01:29:38;;;;;;;0.20;0.20;;;;;;;-2.46;100.00;100965.66;5070687;28;20031;-71
2022/12/16 01:32:05;;;;;;;0.20;0.20;;;;;;;-2.48;100.00;100964.84;5079884;28;20056;-72
2022/12/16 01:34:30;;;;;;;0.20;0.20;;;;;;;-2.58;100.00;100954.50;5067018;28;20068;-71
2022/12/16 01:36:56;;;;;;;0.20;0.20;;;;;;;-2.44;100.00;100972.63;5078724;28;20428;-71
2022/12/16 01:39:21;;;;;;;0.20;0.20;;;;;;;-2.42;100.00;100983.13;5075918;28;20032;-71
2022/12/16 01:41:46;;;;;;;0.20;0.20;;;;;;;-2.42;100.00;100991.00;5072130;28;20032;-71
2022/12/16 01:44:15;;;;;;;0.30;0.30;;;;;;;-2.47;100.00;100977.09;5075934;28;20482;-71
2022/12/16 01:46:41;;;;;;;0.30;0.30;;;;;;;-2.32;100.00;100996.94;5074211;28;20036;-71
2022/12/16 01:49:11;;;;;;;0.30;0.30;;;;;;;-2.33;100.00;101001.31;5067181;28;20125;-71
2022/12/16 01:51:39;;;;;;;0.22;0.22;;;;;;;-2.29;100.00;101002.97;5080784;28;20023;-71
2022/12/16 01:54:09;;;;;;;0.20;0.20;;;;;;;-2.21;100.00;101007.22;5076196;28;20363;-71
2022/12/16 01:56:37;;;;;;;0.30;0.30;;;;;;;-2.20;100.00;101007.16;5068594;28;20028;-71
2022/12/16 01:59:02;;;;;;;0.20;0.20;;;;;;;-2.19;100.00;101001.00;5079630;28;20157;-71
2022/12/16 02:01:27;;;;;;;0.20;0.20;;;;;;;-2.22;100.00;101011.59;5072309;28;20028;-72
2022/12/16 02:03:54;;;;;;;0.30;0.30;;;;;;;-2.18;100.00;101010.63;5078317;28;20059;-71
2022/12/16 02:06:20;;;;;;;0.30;0.30;;;;;;;-2.30;100.00;100995.13;5080649;28;20078;-72
2022/12/16 02:08:46;;;;;;;0.22;0.22;;;;;;;-2.13;100.00;101013.19;5074801;28;20497;-71
2022/12/16 02:11:24;;;;;;;0.20;0.20;;;;;;;-2.20;100.00;101012.44;5059792;28;20112;-71
2022/12/16 02:14:08;;;;;;;0.28;0.28;;;;;;;-2.30;100.00;101008.28;5074065;28;20452;-71
2022/12/16 02:16:51;;;;;;;0.20;0.20;;;;;;;-2.43;100.00;100989.28;5073118;28;20109;-72
2022/12/16 02:19:57;;;;;;;0.20;0.20;;;;;;;-2.25;100.00;101014.28;5077976;28;20470;-71
2022/12/16 02:22:56;;;;;;;0.30;0.30;;;;;;;-2.36;100.00;100992.63;5075381;28;20044;-71
2022/12/16 02:25:44;;;;;;;0.30;0.30;;;;;;;-2.11;100.00;101028.03;5079707;28;20064;-71
2022/12/16 02:28:48;;;;;;;0.22;0.22;;;;;;;-2.05;100.00;101026.16;5071494;28;20029;-71
2022/12/16 02:31:21;;;;;;;0.30;0.30;;;;;;;-2.00;100.00;101034.81;5067836;28;20058;-72
2022/12/16 02:33:53;;;;;;;0.30;0.30;;;;;;;-2.01;100.00;101033.94;5070100;28;20103;-71
2022/12/16 02:36:54;;;;;;;0.30;0.30;;;;;;;-2.07;100.00;101043.75;5071599;28;20020;-72
2022/12/16 02:39:22;;;;;;;0.30;0.30;;;;;;;-2.24;100.00;100999.38;5080766;28;20051;-71
2022/12/16 02:42:00;;;;;;;0.20;0.20;;;;;;;-2.08;100.00;101028.84;5075640;28;20028;-71
2022/12/16 02:44:34;;;;;;;0.30;0.30;;;;;;;-2.03;100.00;101043.63;5072310;28;20031;-71
2022/12/16 02:46:59;;;;;;;0.20;0.20;;;;;;;-2.14;100.00;101032.50;5078911;28;20454;-71
2022/12/16 02:49:25;;;;;;;0.25;0.25;;;;;;;-2.11;100.00;101041.19;5072102;28;20032;-71
2022/12/16 02:51:50;;;;;;;0.30;0.30;;;;;;;-2.14;100.00;101032.50;5072199;28;20032;-71
2022/12/16 02:54:16;;;;;;;0.30;0.30;;;;;;;-2.08;100.00;101044.66;5074605;28;20047;-71
2022/12/16 02:57:00;;;;;;;0.20;0.20;;;;;;;-2.11;100.00;101043.81;5072213;28;20036;-71
2022/12/16 02:59:36;;;;;;;0.30;0.30;;;;;;;-2.10;100.00;101036.75;5075145;28;20024;-72
2022/12/16 03:02:11;;;;;;;0.30;0.30;;;;;;;-2.05;100.00;101040.16;5070986;28;20547;-71
2022/12/16 03:04:48;;;;;;;0.30;0.30;;;;;;;-2.04;100.00;101036.63;5079078;28;20032;-71
2022/12/16 03:07:17;;;;;;;0.25;0.25;;;;;;;-2.08;100.00;101044.66;5075869;28;20024;-71
2022/12/16 03:09:43;;;;;;;0.20;0.20;;;;;;;-2.34;100.00;101020.63;5069123;28;20452;-71
2022/12/16 03:12:11;;;;;;;0.20;0.20;;;;;;;-2.23;100.00;101036.16;5072860;28;20036;-71
2022/12/16 03:14:39;;;;;;;0.20;0.20;;;;;;;-2.33;100.00;101034.66;5070451;28;20478;-71
2022/12/16 03:17:05;;;;;;;0.30;0.30;;;;;;;-2.49;100.00;101005.19;5070065;28;20659;-71
2022/12/16 03:19:31;;;;;;;0.30;0.30;;;;;;;-2.42;100.00;101019.94;5069985;28;20513;-71
2022/12/16 03:22:19;;;;;;;0.30;0.30;;;;;;;-2.23;100.00;101051.09;5070621;28;20071;-71
2022/12/16 03:24:44;;;;;;;0.20;0.20;;;;;;;-2.32;100.00;101031.97;5072389;28;20067;-71
2022/12/16 03:27:30;;;;;;;0.22;0.22;;;;;;;-2.23;100.00;101053.72;5068227;28;20111;-71
2022/12/16 03:30:07;;;;;;;0.20;0.20;;;;;;;-2.42;100.00;101023.41;5071293;28;21234;-71
2022/12/16 03:32:38;;;;;;;0.30;0.30;;;;;;;-2.29;100.00;101028.44;5072478;28;20028;-71
2022/12/16 03:35:32;;;;;;;0.30;0.30;;;;;;;-2.05;100.00;101052.47;5068200;28;20028;-71
2022/12/16 03:37:58;;;;;;;0.20;0.20;;;;;;;-2.26;100.00;101021.31;5078821;28;20086;-72
2022/12/16 03:40:24;;;;;;;0.30;0.30;;;;;;;-2.03;100.00;101056.78;5073307;28;20036;-71
2022/12/16 03:42:51;;;;;;;0.20;0.20;;;;;;;-2.01;100.00;101060.25;5066765;28;20062;-71
2022/12/16 03:45:22;;;;;;;0.20;0.20;;;;;;;-2.01;100.00;101068.16;5069554;28;20035;-71
2022/12/16 03:47:51;;;;;;;0.30;0.30;;;;;;;-2.08;100.00;101050.75;5073991;28;20039;-71
2022/12/16 03:50:19;;;;;;;0.30;0.30;;;;;;;-1.91;100.00;101073.22;5067040;28;20028;-71
2022/12/16 03:52:44;;;;;;;0.30;0.30;;;;;;;-2.05;100.00;101060.38;5070280;28;20417;-71
2022/12/16 03:55:09;;;;;;;0.30;0.30;;;;;;;-1.91;100.00;101084.59;5071970;28;20487;-71
2022/12/16 03:57:35;;;;;;;0.20;0.20;;;;;;;-1.87;100.00;101088.91;5073935;28;20032;-71
2022/12/16 04:00:04;;;;;;;0.30;0.30;;;;;;;-1.85;100.00;101088.84;5074631;28;20028;-71
2022/12/16 04:02:29;;;;;;;0.20;0.20;;;;;;;-1.96;100.00;101068.03;5072040;28;20501;-71
2022/12/16 04:04:54;;;;;;;0.20;0.20;;;;;;;-2.05;100.00;101055.09;5060985;28;20055;-71
2022/12/16 04:07:20;;;;;;;0.30;0.30;;;;;;;-1.99;100.00;101062.88;5074889;28;20028;-71
2022/12/16 04:09:45;;;;;;;0.20;0.20;;;;;;;-1.80;100.00;101100.16;5078938;28;20024;-71
2022/12/16 04:25:56;;;;;;;0.30;0.30;;;;;;;-1.70;100.00;101100.81;5083846;28;20493;-71
2022/12/16 04:28:21;;;;;;;0.20;0.20;;;;;;;-1.70;100.00;101106.06;5084407;28;20815;-70
2022/12/16 04:30:47;;;;;;;0.30;0.30;;;;;;;-1.65;100.00;101112.13;5081018;28;20024;-71
